sensor_id;sensor_type;location;lat;lon;timestamp;P1;durP1;ratioP1;P2;durP2;ratioP2
33150;SDS011;19508;42.578;23.416;2023-07-30T00:00:00;6.25;;;2.38;;
33150;SDS011;19508;42.578;23.416;2023-07-30T00:02:25;3.03;;;2.05;;
33150;SDS011;19508;42.578;23.416;2023-07-30T00:04:51;3.22;;;2.00;;
33150;SDS011;19508;42.578;23.416;2023-07-30T00:07:16;2.78;;;2.20;;
33150;SDS011;19508;42.578;23.416;2023-07-30T00:09:42;3.17;;;2.30;;
33150;SDS011;19508;42.578;23.416;2023-07-30T00:12:07;4.40;;;2.40;;
33150;SDS011;19508;42.578;23.416;2023-07-30T00:14:33;3.88;;;2.35;;
33150;SDS011;19508;42.578;23.416;2023-07-30T00:16:59;9.70;;;2.60;;
33150;SDS011;19508;42.578;23.416;2023-07-30T00:19:25;3.30;;;2.30;;
33150;SDS011;19508;42.578;23.416;2023-07-30T00:21:51;6.50;;;2.35;;
33150;SDS011;19508;42.578;23.416;2023-07-30T00:24:16;4.35;;;2.42;;
33150;SDS011;19508;42.578;23.416;2023-07-30T00:26:41;3.78;;;2.10;;
33150;SDS011;19508;42.578;23.416;2023-07-30T00:29:07;3.03;;;2.28;;
33150;SDS011;19508;42.578;23.416;2023-07-30T00:31:32;2.17;;;1.98;;
33150;SDS011;19508;42.578;23.416;2023-07-30T00:33:57;3.50;;;2.33;;
33150;SDS011;19508;42.578;23.416;2023-07-30T00:36:23;4.30;;;2.08;;
33150;SDS011;19508;42.578;23.416;2023-07-30T00:38:48;6.25;;;2.95;;
33150;SDS011;19508;42.578;23.416;2023-07-30T00:41:14;4.95;;;2.08;;
33150;SDS011;19508;42.578;23.416;2023-07-30T00:43:39;3.80;;;2.22;;
33150;SDS011;19508;42.578;23.416;2023-07-30T00:46:04;6.97;;;2.40;;
33150;SDS011;19508;42.578;23.416;2023-07-30T00:48:30;4.28;;;2.30;;
33150;SDS011;19508;42.578;23.416;2023-07-30T00:50:56;4.63;;;2.42;;
33150;SDS011;19508;42.578;23.416;2023-07-30T00:53:22;5.43;;;2.70;;
33150;SDS011;19508;42.578;23.416;2023-07-30T00:55:48;2.88;;;2.10;;
33150;SDS011;19508;42.578;23.416;2023-07-30T00:58:14;2.60;;;1.98;;
33150;SDS011;19508;42.578;23.416;2023-07-30T01:00:40;3.97;;;2.10;;
33150;SDS011;19508;42.578;23.416;2023-07-30T01:03:06;3.30;;;2.00;;
33150;SDS011;19508;42.578;23.416;2023-07-30T01:05:32;2.88;;;2.38;;
33150;SDS011;19508;42.578;23.416;2023-07-30T01:07:58;6.22;;;2.17;;
33150;SDS011;19508;42.578;23.416;2023-07-30T01:10:23;3.13;;;2.00;;
33150;SDS011;19508;42.578;23.416;2023-07-30T01:12:50;5.10;;;1.90;;
33150;SDS011;19508;42.578;23.416;2023-07-30T01:15:16;5.35;;;2.38;;
33150;SDS011;19508;42.578;23.416;2023-07-30T01:17:42;7.30;;;2.17;;
33150;SDS011;19508;42.578;23.416;2023-07-30T01:20:08;3.42;;;2.20;;
33150;SDS011;19508;42.578;23.416;2023-07-30T01:22:35;3.20;;;1.95;;
33150;SDS011;19508;42.578;23.416;2023-07-30T01:25:00;5.25;;;2.50;;
33150;SDS011;19508;42.578;23.416;2023-07-30T01:27:30;2.10;;;1.90;;
33150;SDS011;19508;42.578;23.416;2023-07-30T01:32:43;2.65;;;1.77;;
33150;SDS011;19508;42.578;23.416;2023-07-30T01:35:13;2.38;;;1.90;;
33150;SDS011;19508;42.578;23.416;2023-07-30T01:37:39;5.25;;;2.28;;
33150;SDS011;19508;42.578;23.416;2023-07-30T01:40:06;5.80;;;2.35;;
33150;SDS011;19508;42.578;23.416;2023-07-30T01:42:33;3.17;;;2.17;;
33150;SDS011;19508;42.578;23.416;2023-07-30T01:44:58;2.63;;;2.03;;
33150;SDS011;19508;42.578;23.416;2023-07-30T01:47:23;2.28;;;1.90;;
33150;SDS011;19508;42.578;23.416;2023-07-30T01:49:49;3.85;;;2.10;;
33150;SDS011;19508;42.578;23.416;2023-07-30T01:52:15;3.38;;;2.10;;
33150;SDS011;19508;42.578;23.416;2023-07-30T01:54:40;4.45;;;2.10;;
33150;SDS011;19508;42.578;23.416;2023-07-30T01:57:07;2.40;;;1.98;;
33150;SDS011;19508;42.578;23.416;2023-07-30T01:59:32;3.85;;;2.38;;
33150;SDS011;19508;42.578;23.416;2023-07-30T02:01:58;10.00;;;2.20;;
33150;SDS011;19508;42.578;23.416;2023-07-30T02:04:23;6.70;;;2.50;;
33150;SDS011;19508;42.578;23.416;2023-07-30T02:06:49;2.90;;;2.10;;
33150;SDS011;19508;42.578;23.416;2023-07-30T02:09:14;3.80;;;1.83;;
33150;SDS011;19508;42.578;23.416;2023-07-30T02:11:39;2.95;;;2.00;;
33150;SDS011;19508;42.578;23.416;2023-07-30T02:14:05;5.63;;;2.10;;
33150;SDS011;19508;42.578;23.416;2023-07-30T02:16:30;6.20;;;2.15;;
33150;SDS011;19508;42.578;23.416;2023-07-30T02:18:55;2.15;;;1.95;;
33150;SDS011;19508;42.578;23.416;2023-07-30T02:21:21;2.55;;;1.90;;
33150;SDS011;19508;42.578;23.416;2023-07-30T02:23:46;3.20;;;2.42;;
33150;SDS011;19508;42.578;23.416;2023-07-30T02:26:11;8.93;;;2.30;;
33150;SDS011;19508;42.578;23.416;2023-07-30T02:28:37;2.50;;;2.00;;
33150;SDS011;19508;42.578;23.416;2023-07-30T02:31:02;11.63;;;2.53;;
33150;SDS011;19508;42.578;23.416;2023-07-30T02:33:27;9.65;;;2.28;;
33150;SDS011;19508;42.578;23.416;2023-07-30T02:35:53;6.10;;;2.10;;
33150;SDS011;19508;42.578;23.416;2023-07-30T02:38:18;3.75;;;2.60;;
33150;SDS011;19508;42.578;23.416;2023-07-30T02:40:44;5.28;;;2.60;;
33150;SDS011;19508;42.578;23.416;2023-07-30T02:43:09;3.13;;;2.17;;
33150;SDS011;19508;42.578;23.416;2023-07-30T02:45:34;3.03;;;2.28;;
33150;SDS011;19508;42.578;23.416;2023-07-30T02:48:00;3.90;;;2.25;;
33150;SDS011;19508;42.578;23.416;2023-07-30T02:50:25;16.83;;;3.65;;
33150;SDS011;19508;42.578;23.416;2023-07-30T02:52:50;5.50;;;2.13;;
33150;SDS011;19508;42.578;23.416;2023-07-30T02:55:16;4.63;;;2.30;;
33150;SDS011;19508;42.578;23.416;2023-07-30T02:57:41;22.13;;;2.92;;
33150;SDS011;19508;42.578;23.416;2023-07-30T03:00:07;23.17;;;3.35;;
33150;SDS011;19508;42.578;23.416;2023-07-30T03:02:33;15.75;;;2.58;;
33150;SDS011;19508;42.578;23.416;2023-07-30T03:04:59;6.30;;;2.65;;
33150;SDS011;19508;42.578;23.416;2023-07-30T03:07:24;7.00;;;2.50;;
33150;SDS011;19508;42.578;23.416;2023-07-30T03:09:50;13.10;;;2.85;;
33150;SDS011;19508;42.578;23.416;2023-07-30T03:12:15;40.20;;;5.10;;
33150;SDS011;19508;42.578;23.416;2023-07-30T03:14:41;48.75;;;5.05;;
33150;SDS011;19508;42.578;23.416;2023-07-30T03:17:06;5.75;;;2.80;;
33150;SDS011;19508;42.578;23.416;2023-07-30T03:19:31;2.92;;;2.13;;
33150;SDS011;19508;42.578;23.416;2023-07-30T03:21:57;5.80;;;2.83;;
33150;SDS011;19508;42.578;23.416;2023-07-30T03:24:23;8.30;;;2.60;;
33150;SDS011;19508;42.578;23.416;2023-07-30T03:26:48;4.88;;;3.15;;
33150;SDS011;19508;42.578;23.416;2023-07-30T03:29:14;5.20;;;2.42;;
33150;SDS011;19508;42.578;23.416;2023-07-30T03:31:40;5.70;;;2.90;;
33150;SDS011;19508;42.578;23.416;2023-07-30T03:34:05;3.80;;;3.03;;
33150;SDS011;19508;42.578;23.416;2023-07-30T03:36:31;3.78;;;2.75;;
33150;SDS011;19508;42.578;23.416;2023-07-30T03:38:56;7.40;;;3.05;;
33150;SDS011;19508;42.578;23.416;2023-07-30T03:41:22;4.68;;;2.95;;
33150;SDS011;19508;42.578;23.416;2023-07-30T03:43:47;3.35;;;3.05;;
33150;SDS011;19508;42.578;23.416;2023-07-30T03:46:13;3.42;;;2.70;;
33150;SDS011;19508;42.578;23.416;2023-07-30T03:48:38;4.60;;;3.30;;
33150;SDS011;19508;42.578;23.416;2023-07-30T03:51:04;5.82;;;3.40;;
33150;SDS011;19508;42.578;23.416;2023-07-30T03:53:29;4.18;;;2.88;;
33150;SDS011;19508;42.578;23.416;2023-07-30T03:55:54;9.63;;;2.80;;
33150;SDS011;19508;42.578;23.416;2023-07-30T03:58:20;4.47;;;2.85;;
33150;SDS011;19508;42.578;23.416;2023-07-30T04:00:45;6.38;;;2.90;;
33150;SDS011;19508;42.578;23.416;2023-07-30T04:03:10;5.10;;;3.03;;
33150;SDS011;19508;42.578;23.416;2023-07-30T04:05:36;4.15;;;3.00;;
33150;SDS011;19508;42.578;23.416;2023-07-30T04:08:01;5.30;;;3.20;;
33150;SDS011;19508;42.578;23.416;2023-07-30T04:10:27;4.57;;;2.90;;
33150;SDS011;19508;42.578;23.416;2023-07-30T04:12:52;4.30;;;2.60;;
33150;SDS011;19508;42.578;23.416;2023-07-30T04:15:19;2.97;;;2.22;;
33150;SDS011;19508;42.578;23.416;2023-07-30T04:17:44;9.85;;;3.08;;
33150;SDS011;19508;42.578;23.416;2023-07-30T04:20:11;9.77;;;3.03;;
33150;SDS011;19508;42.578;23.416;2023-07-30T04:22:36;3.58;;;2.53;;
33150;SDS011;19508;42.578;23.416;2023-07-30T04:25:02;5.32;;;2.55;;
33150;SDS011;19508;42.578;23.416;2023-07-30T04:27:27;3.70;;;2.45;;
33150;SDS011;19508;42.578;23.416;2023-07-30T04:29:53;5.03;;;2.80;;
33150;SDS011;19508;42.578;23.416;2023-07-30T04:32:18;4.82;;;3.08;;
33150;SDS011;19508;42.578;23.416;2023-07-30T04:34:43;3.53;;;2.22;;
33150;SDS011;19508;42.578;23.416;2023-07-30T04:37:09;4.30;;;2.40;;
33150;SDS011;19508;42.578;23.416;2023-07-30T04:39:35;8.15;;;2.80;;
33150;SDS011;19508;42.578;23.416;2023-07-30T04:42:01;3.50;;;2.47;;
33150;SDS011;19508;42.578;23.416;2023-07-30T04:44:27;5.07;;;2.90;;
33150;SDS011;19508;42.578;23.416;2023-07-30T04:46:52;7.55;;;2.60;;
33150;SDS011;19508;42.578;23.416;2023-07-30T04:49:18;5.15;;;3.00;;
33150;SDS011;19508;42.578;23.416;2023-07-30T04:51:43;7.05;;;2.45;;
33150;SDS011;19508;42.578;23.416;2023-07-30T04:54:08;6.55;;;2.42;;
33150;SDS011;19508;42.578;23.416;2023-07-30T04:56:34;2.72;;;2.35;;
33150;SDS011;19508;42.578;23.416;2023-07-30T04:59:00;6.82;;;2.63;;
33150;SDS011;19508;42.578;23.416;2023-07-30T05:01:26;4.32;;;2.58;;
33150;SDS011;19508;42.578;23.416;2023-07-30T05:03:51;4.40;;;2.90;;
33150;SDS011;19508;42.578;23.416;2023-07-30T05:06:16;4.15;;;2.67;;
33150;SDS011;19508;42.578;23.416;2023-07-30T05:08:42;5.00;;;2.92;;
33150;SDS011;19508;42.578;23.416;2023-07-30T05:11:07;4.30;;;3.03;;
33150;SDS011;19508;42.578;23.416;2023-07-30T05:13:33;6.25;;;2.67;;
33150;SDS011;19508;42.578;23.416;2023-07-30T05:15:58;6.80;;;2.97;;
33150;SDS011;19508;42.578;23.416;2023-07-30T05:18:23;5.60;;;2.85;;
33150;SDS011;19508;42.578;23.416;2023-07-30T05:20:49;5.43;;;2.63;;
33150;SDS011;19508;42.578;23.416;2023-07-30T05:23:14;9.93;;;2.60;;
33150;SDS011;19508;42.578;23.416;2023-07-30T05:25:40;4.53;;;2.58;;
33150;SDS011;19508;42.578;23.416;2023-07-30T05:28:05;3.53;;;2.50;;
33150;SDS011;19508;42.578;23.416;2023-07-30T05:30:31;4.00;;;2.80;;
33150;SDS011;19508;42.578;23.416;2023-07-30T05:32:56;4.47;;;2.60;;
33150;SDS011;19508;42.578;23.416;2023-07-30T05:35:22;4.57;;;2.72;;
33150;SDS011;19508;42.578;23.416;2023-07-30T05:37:47;4.60;;;2.60;;
33150;SDS011;19508;42.578;23.416;2023-07-30T05:40:12;2.95;;;2.45;;
33150;SDS011;19508;42.578;23.416;2023-07-30T05:42:38;3.03;;;2.60;;
33150;SDS011;19508;42.578;23.416;2023-07-30T05:45:03;4.75;;;2.60;;
33150;SDS011;19508;42.578;23.416;2023-07-30T05:47:29;7.10;;;2.70;;
33150;SDS011;19508;42.578;23.416;2023-07-30T05:49:54;2.65;;;2.10;;
33150;SDS011;19508;42.578;23.416;2023-07-30T05:52:20;6.68;;;2.63;;
33150;SDS011;19508;42.578;23.416;2023-07-30T05:54:45;3.45;;;2.63;;
33150;SDS011;19508;42.578;23.416;2023-07-30T05:57:11;6.68;;;2.58;;
33150;SDS011;19508;42.578;23.416;2023-07-30T05:59:36;15.15;;;2.88;;
33150;SDS011;19508;42.578;23.416;2023-07-30T06:02:02;3.55;;;2.53;;
33150;SDS011;19508;42.578;23.416;2023-07-30T06:04:28;3.60;;;2.42;;
33150;SDS011;19508;42.578;23.416;2023-07-30T06:06:54;4.10;;;2.60;;
33150;SDS011;19508;42.578;23.416;2023-07-30T06:09:19;8.38;;;2.50;;
33150;SDS011;19508;42.578;23.416;2023-07-30T06:11:45;11.90;;;2.50;;
33150;SDS011;19508;42.578;23.416;2023-07-30T06:14:10;3.72;;;2.50;;
33150;SDS011;19508;42.578;23.416;2023-07-30T06:16:36;3.58;;;2.45;;
33150;SDS011;19508;42.578;23.416;2023-07-30T06:19:01;4.38;;;2.65;;
33150;SDS011;19508;42.578;23.416;2023-07-30T06:21:27;5.18;;;2.60;;
33150;SDS011;19508;42.578;23.416;2023-07-30T06:23:52;3.42;;;2.60;;
33150;SDS011;19508;42.578;23.416;2023-07-30T06:26:17;4.50;;;2.28;;
33150;SDS011;19508;42.578;23.416;2023-07-30T06:28:43;3.78;;;2.38;;
33150;SDS011;19508;42.578;23.416;2023-07-30T06:31:09;7.38;;;2.67;;
33150;SDS011;19508;42.578;23.416;2023-07-30T06:33:34;4.22;;;2.42;;
33150;SDS011;19508;42.578;23.416;2023-07-30T06:36:00;3.80;;;2.30;;
33150;SDS011;19508;42.578;23.416;2023-07-30T06:38:25;10.95;;;2.15;;
33150;SDS011;19508;42.578;23.416;2023-07-30T06:40:50;3.40;;;2.38;;
33150;SDS011;19508;42.578;23.416;2023-07-30T06:43:16;3.20;;;2.22;;
33150;SDS011;19508;42.578;23.416;2023-07-30T06:45:41;3.63;;;2.28;;
33150;SDS011;19508;42.578;23.416;2023-07-30T06:48:07;3.08;;;2.10;;
33150;SDS011;19508;42.578;23.416;2023-07-30T06:50:32;3.72;;;2.30;;
33150;SDS011;19508;42.578;23.416;2023-07-30T06:52:57;2.25;;;1.83;;
33150;SDS011;19508;42.578;23.416;2023-07-30T06:55:23;3.25;;;2.17;;
33150;SDS011;19508;42.578;23.416;2023-07-30T06:57:48;4.38;;;2.30;;
33150;SDS011;19508;42.578;23.416;2023-07-30T07:00:14;3.42;;;1.95;;
33150;SDS011;19508;42.578;23.416;2023-07-30T07:02:46;3.40;;;1.90;;
33150;SDS011;19508;42.578;23.416;2023-07-30T07:05:12;2.13;;;1.60;;
33150;SDS011;19508;42.578;23.416;2023-07-30T07:07:37;2.10;;;1.70;;
33150;SDS011;19508;42.578;23.416;2023-07-30T07:10:02;3.47;;;2.00;;
33150;SDS011;19508;42.578;23.416;2023-07-30T07:12:28;3.95;;;1.92;;
33150;SDS011;19508;42.578;23.416;2023-07-30T07:14:53;2.97;;;2.13;;
33150;SDS011;19508;42.578;23.416;2023-07-30T07:17:23;3.03;;;2.03;;
33150;SDS011;19508;42.578;23.416;2023-07-30T07:19:48;2.88;;;1.95;;
33150;SDS011;19508;42.578;23.416;2023-07-30T07:22:13;2.17;;;1.77;;
33150;SDS011;19508;42.578;23.416;2023-07-30T07:24:39;3.22;;;1.90;;
33150;SDS011;19508;42.578;23.416;2023-07-30T07:27:04;5.60;;;1.90;;
33150;SDS011;19508;42.578;23.416;2023-07-30T07:29:30;2.33;;;1.90;;
33150;SDS011;19508;42.578;23.416;2023-07-30T07:31:55;6.07;;;2.28;;
33150;SDS011;19508;42.578;23.416;2023-07-30T07:34:21;2.85;;;2.10;;
33150;SDS011;19508;42.578;23.416;2023-07-30T07:36:46;6.13;;;2.05;;
33150;SDS011;19508;42.578;23.416;2023-07-30T07:39:12;10.30;;;2.40;;
33150;SDS011;19508;42.578;23.416;2023-07-30T07:41:37;6.85;;;2.55;;
33150;SDS011;19508;42.578;23.416;2023-07-30T07:44:03;6.38;;;2.38;;
33150;SDS011;19508;42.578;23.416;2023-07-30T07:46:28;4.50;;;2.75;;
33150;SDS011;19508;42.578;23.416;2023-07-30T07:48:54;2.70;;;2.00;;
33150;SDS011;19508;42.578;23.416;2023-07-30T07:51:19;7.13;;;2.28;;
33150;SDS011;19508;42.578;23.416;2023-07-30T07:53:45;5.32;;;2.20;;
33150;SDS011;19508;42.578;23.416;2023-07-30T07:56:10;7.82;;;2.08;;
33150;SDS011;19508;42.578;23.416;2023-07-30T07:58:36;2.58;;;2.25;;
33150;SDS011;19508;42.578;23.416;2023-07-30T08:01:01;5.60;;;2.35;;
33150;SDS011;19508;42.578;23.416;2023-07-30T08:03:26;6.75;;;2.35;;
33150;SDS011;19508;42.578;23.416;2023-07-30T08:05:52;4.07;;;2.38;;
33150;SDS011;19508;42.578;23.416;2023-07-30T08:08:17;10.90;;;2.17;;
33150;SDS011;19508;42.578;23.416;2023-07-30T08:10:43;4.90;;;2.05;;
33150;SDS011;19508;42.578;23.416;2023-07-30T08:13:11;11.55;;;2.20;;
33150;SDS011;19508;42.578;23.416;2023-07-30T08:15:37;7.68;;;2.33;;
33150;SDS011;19508;42.578;23.416;2023-07-30T08:18:02;2.30;;;2.10;;
33150;SDS011;19508;42.578;23.416;2023-07-30T08:20:28;2.50;;;1.77;;
33150;SDS011;19508;42.578;23.416;2023-07-30T08:22:53;4.68;;;2.40;;
33150;SDS011;19508;42.578;23.416;2023-07-30T08:25:20;2.72;;;2.28;;
33150;SDS011;19508;42.578;23.416;2023-07-30T08:27:45;4.55;;;2.03;;
33150;SDS011;19508;42.578;23.416;2023-07-30T08:30:11;11.70;;;2.20;;
33150;SDS011;19508;42.578;23.416;2023-07-30T08:32:37;5.47;;;2.40;;
33150;SDS011;19508;42.578;23.416;2023-07-30T08:35:03;6.65;;;2.40;;
33150;SDS011;19508;42.578;23.416;2023-07-30T08:37:29;7.75;;;2.25;;
33150;SDS011;19508;42.578;23.416;2023-07-30T08:39:54;5.22;;;2.25;;
33150;SDS011;19508;42.578;23.416;2023-07-30T08:42:20;5.18;;;2.40;;
33150;SDS011;19508;42.578;23.416;2023-07-30T08:44:45;6.53;;;2.25;;
33150;SDS011;19508;42.578;23.416;2023-07-30T08:47:10;5.35;;;2.42;;
33150;SDS011;19508;42.578;23.416;2023-07-30T08:49:36;2.90;;;1.70;;
33150;SDS011;19508;42.578;23.416;2023-07-30T08:52:02;2.90;;;2.28;;
33150;SDS011;19508;42.578;23.416;2023-07-30T08:54:29;8.82;;;2.42;;
33150;SDS011;19508;42.578;23.416;2023-07-30T08:56:56;3.03;;;2.28;;
33150;SDS011;19508;42.578;23.416;2023-07-30T08:59:23;4.90;;;2.25;;
33150;SDS011;19508;42.578;23.416;2023-07-30T09:01:52;3.35;;;2.33;;
33150;SDS011;19508;42.578;23.416;2023-07-30T09:04:19;3.83;;;2.10;;
33150;SDS011;19508;42.578;23.416;2023-07-30T09:06:49;3.83;;;2.40;;
33150;SDS011;19508;42.578;23.416;2023-07-30T09:09:15;5.05;;;2.67;;
33150;SDS011;19508;42.578;23.416;2023-07-30T09:11:40;4.60;;;2.67;;
33150;SDS011;19508;42.578;23.416;2023-07-30T09:14:06;7.60;;;2.33;;
33150;SDS011;19508;42.578;23.416;2023-07-30T09:16:32;4.32;;;2.13;;
33150;SDS011;19508;42.578;23.416;2023-07-30T09:18:57;4.93;;;2.40;;
33150;SDS011;19508;42.578;23.416;2023-07-30T09:21:29;10.63;;;2.42;;
33150;SDS011;19508;42.578;23.416;2023-07-30T09:23:56;18.23;;;2.53;;
33150;SDS011;19508;42.578;23.416;2023-07-30T09:26:22;7.40;;;2.42;;
33150;SDS011;19508;42.578;23.416;2023-07-30T09:28:47;2.83;;;2.33;;
33150;SDS011;19508;42.578;23.416;2023-07-30T09:31:12;5.43;;;2.58;;
33150;SDS011;19508;42.578;23.416;2023-07-30T09:33:40;4.22;;;2.50;;
33150;SDS011;19508;42.578;23.416;2023-07-30T09:36:07;3.75;;;2.40;;
33150;SDS011;19508;42.578;23.416;2023-07-30T09:38:40;4.43;;;2.30;;
33150;SDS011;19508;42.578;23.416;2023-07-30T09:41:06;4.50;;;2.45;;
33150;SDS011;19508;42.578;23.416;2023-07-30T09:43:33;5.25;;;2.47;;
33150;SDS011;19508;42.578;23.416;2023-07-30T09:46:02;7.75;;;3.08;;
33150;SDS011;19508;42.578;23.416;2023-07-30T09:48:29;6.67;;;2.60;;
33150;SDS011;19508;42.578;23.416;2023-07-30T09:50:58;16.92;;;2.67;;
33150;SDS011;19508;42.578;23.416;2023-07-30T09:53:24;4.82;;;2.60;;
33150;SDS011;19508;42.578;23.416;2023-07-30T09:55:49;3.47;;;2.75;;
33150;SDS011;19508;42.578;23.416;2023-07-30T09:58:15;3.38;;;2.58;;
33150;SDS011;19508;42.578;23.416;2023-07-30T10:00:41;3.05;;;2.30;;
33150;SDS011;19508;42.578;23.416;2023-07-30T10:03:09;5.93;;;2.60;;
33150;SDS011;19508;42.578;23.416;2023-07-30T10:05:37;6.07;;;2.63;;
33150;SDS011;19508;42.578;23.416;2023-07-30T10:08:11;4.13;;;2.42;;
33150;SDS011;19508;42.578;23.416;2023-07-30T10:10:44;3.33;;;2.03;;
33150;SDS011;19508;42.578;23.416;2023-07-30T10:13:12;10.38;;;2.47;;
33150;SDS011;19508;42.578;23.416;2023-07-30T10:15:38;5.90;;;2.05;;
33150;SDS011;19508;42.578;23.416;2023-07-30T10:18:04;3.80;;;2.35;;
33150;SDS011;19508;42.578;23.416;2023-07-30T10:20:30;7.13;;;2.85;;
33150;SDS011;19508;42.578;23.416;2023-07-30T10:22:57;6.78;;;2.40;;
33150;SDS011;19508;42.578;23.416;2023-07-30T10:25:30;2.80;;;2.13;;
33150;SDS011;19508;42.578;23.416;2023-07-30T10:30:56;8.40;;;2.63;;
33150;SDS011;19508;42.578;23.416;2023-07-30T10:33:22;13.50;;;2.80;;
33150;SDS011;19508;42.578;23.416;2023-07-30T10:35:48;5.32;;;3.00;;
33150;SDS011;19508;42.578;23.416;2023-07-30T10:43:34;4.78;;;2.40;;
33150;SDS011;19508;42.578;23.416;2023-07-30T10:46:02;6.30;;;2.75;;
33150;SDS011;19508;42.578;23.416;2023-07-30T10:48:35;4.88;;;2.92;;
33150;SDS011;19508;42.578;23.416;2023-07-30T10:51:03;14.00;;;2.65;;
33150;SDS011;19508;42.578;23.416;2023-07-30T10:53:33;3.13;;;2.10;;
33150;SDS011;19508;42.578;23.416;2023-07-30T10:56:01;3.92;;;2.70;;
33150;SDS011;19508;42.578;23.416;2023-07-30T10:58:32;3.90;;;2.47;;
33150;SDS011;19508;42.578;23.416;2023-07-30T11:01:03;3.72;;;2.20;;
33150;SDS011;19508;42.578;23.416;2023-07-30T11:03:33;5.25;;;2.47;;
33150;SDS011;19508;42.578;23.416;2023-07-30T11:06:00;10.50;;;2.45;;
33150;SDS011;19508;42.578;23.416;2023-07-30T11:08:36;4.20;;;2.42;;
33150;SDS011;19508;42.578;23.416;2023-07-30T11:11:03;4.20;;;2.55;;
33150;SDS011;19508;42.578;23.416;2023-07-30T11:13:29;6.30;;;2.60;;
33150;SDS011;19508;42.578;23.416;2023-07-30T11:16:01;7.28;;;2.63;;
33150;SDS011;19508;42.578;23.416;2023-07-30T11:18:27;3.50;;;2.75;;
33150;SDS011;19508;42.578;23.416;2023-07-30T11:21:17;3.25;;;2.55;;
33150;SDS011;19508;42.578;23.416;2023-07-30T11:23:43;8.50;;;2.78;;
33150;SDS011;19508;42.578;23.416;2023-07-30T11:26:14;4.20;;;2.10;;
33150;SDS011;19508;42.578;23.416;2023-07-30T11:28:41;5.50;;;2.50;;
33150;SDS011;19508;42.578;23.416;2023-07-30T11:31:12;14.88;;;2.90;;
33150;SDS011;19508;42.578;23.416;2023-07-30T11:33:48;5.65;;;2.78;;
33150;SDS011;19508;42.578;23.416;2023-07-30T11:36:15;3.45;;;2.30;;
33150;SDS011;19508;42.578;23.416;2023-07-30T11:38:42;3.25;;;2.25;;
33150;SDS011;19508;42.578;23.416;2023-07-30T11:41:09;4.70;;;2.72;;
33150;SDS011;19508;42.578;23.416;2023-07-30T11:43:39;5.32;;;2.50;;
33150;SDS011;19508;42.578;23.416;2023-07-30T11:46:13;3.95;;;2.70;;
33150;SDS011;19508;42.578;23.416;2023-07-30T11:48:41;2.55;;;2.30;;
33150;SDS011;19508;42.578;23.416;2023-07-30T11:51:18;6.07;;;2.30;;
33150;SDS011;19508;42.578;23.416;2023-07-30T11:53:44;3.72;;;2.60;;
33150;SDS011;19508;42.578;23.416;2023-07-30T11:56:31;3.67;;;2.60;;
33150;SDS011;19508;42.578;23.416;2023-07-30T11:59:07;8.18;;;2.38;;
33150;SDS011;19508;42.578;23.416;2023-07-30T12:01:34;8.10;;;2.85;;
33150;SDS011;19508;42.578;23.416;2023-07-30T12:04:02;4.45;;;2.80;;
33150;SDS011;19508;42.578;23.416;2023-07-30T12:06:38;6.45;;;2.53;;
33150;SDS011;19508;42.578;23.416;2023-07-30T12:09:23;5.45;;;2.85;;
33150;SDS011;19508;42.578;23.416;2023-07-30T12:11:52;5.70;;;2.58;;
33150;SDS011;19508;42.578;23.416;2023-07-30T12:14:24;5.32;;;2.50;;
33150;SDS011;19508;42.578;23.416;2023-07-30T12:16:55;9.07;;;2.50;;
33150;SDS011;19508;42.578;23.416;2023-07-30T12:19:24;6.57;;;2.58;;
33150;SDS011;19508;42.578;23.416;2023-07-30T12:21:49;3.92;;;2.67;;
33150;SDS011;19508;42.578;23.416;2023-07-30T12:24:15;4.20;;;2.50;;
33150;SDS011;19508;42.578;23.416;2023-07-30T12:26:40;5.05;;;2.55;;
33150;SDS011;19508;42.578;23.416;2023-07-30T12:29:06;7.45;;;2.80;;
33150;SDS011;19508;42.578;23.416;2023-07-30T12:31:31;4.25;;;2.50;;
33150;SDS011;19508;42.578;23.416;2023-07-30T12:33:57;3.10;;;2.55;;
33150;SDS011;19508;42.578;23.416;2023-07-30T12:36:22;4.90;;;2.97;;
33150;SDS011;19508;42.578;23.416;2023-07-30T12:38:48;8.05;;;2.85;;
33150;SDS011;19508;42.578;23.416;2023-07-30T12:41:13;12.32;;;3.20;;
33150;SDS011;19508;42.578;23.416;2023-07-30T12:43:38;5.28;;;3.03;;
33150;SDS011;19508;42.578;23.416;2023-07-30T12:46:04;3.50;;;2.55;;
33150;SDS011;19508;42.578;23.416;2023-07-30T12:48:29;7.70;;;3.13;;
33150;SDS011;19508;42.578;23.416;2023-07-30T12:50:55;5.28;;;2.83;;
33150;SDS011;19508;42.578;23.416;2023-07-30T12:53:20;4.20;;;2.95;;
33150;SDS011;19508;42.578;23.416;2023-07-30T12:55:46;5.15;;;2.88;;
33150;SDS011;19508;42.578;23.416;2023-07-30T12:58:11;3.67;;;3.05;;
33150;SDS011;19508;42.578;23.416;2023-07-30T13:00:37;5.25;;;2.75;;
33150;SDS011;19508;42.578;23.416;2023-07-30T13:03:02;8.35;;;2.97;;
33150;SDS011;19508;42.578;23.416;2023-07-30T13:05:27;4.95;;;3.20;;
33150;SDS011;19508;42.578;23.416;2023-07-30T13:07:53;9.27;;;2.95;;
33150;SDS011;19508;42.578;23.416;2023-07-30T13:10:18;5.70;;;2.75;;
33150;SDS011;19508;42.578;23.416;2023-07-30T13:12:44;5.60;;;2.63;;
33150;SDS011;19508;42.578;23.416;2023-07-30T13:15:09;4.05;;;2.67;;
33150;SDS011;19508;42.578;23.416;2023-07-30T13:17:35;4.40;;;2.58;;
33150;SDS011;19508;42.578;23.416;2023-07-30T13:20:03;6.32;;;3.05;;
33150;SDS011;19508;42.578;23.416;2023-07-30T13:22:29;7.20;;;2.80;;
33150;SDS011;19508;42.578;23.416;2023-07-30T13:24:55;7.43;;;3.25;;
33150;SDS011;19508;42.578;23.416;2023-07-30T13:27:20;8.30;;;2.75;;
33150;SDS011;19508;42.578;23.416;2023-07-30T13:29:46;7.07;;;2.70;;
33150;SDS011;19508;42.578;23.416;2023-07-30T13:32:13;5.22;;;2.88;;
33150;SDS011;19508;42.578;23.416;2023-07-30T13:34:38;5.25;;;2.90;;
33150;SDS011;19508;42.578;23.416;2023-07-30T13:37:04;7.13;;;3.00;;
33150;SDS011;19508;42.578;23.416;2023-07-30T13:39:29;4.82;;;3.28;;
33150;SDS011;19508;42.578;23.416;2023-07-30T13:41:55;9.32;;;2.80;;
33150;SDS011;19508;42.578;23.416;2023-07-30T13:44:20;8.50;;;2.92;;
33150;SDS011;19508;42.578;23.416;2023-07-30T13:46:46;8.93;;;2.95;;
33150;SDS011;19508;42.578;23.416;2023-07-30T13:49:11;4.75;;;3.17;;
33150;SDS011;19508;42.578;23.416;2023-07-30T13:51:37;9.38;;;3.00;;
33150;SDS011;19508;42.578;23.416;2023-07-30T13:54:02;13.93;;;3.33;;
33150;SDS011;19508;42.578;23.416;2023-07-30T13:56:28;12.07;;;3.25;;
33150;SDS011;19508;42.578;23.416;2023-07-30T13:58:54;5.10;;;2.80;;
33150;SDS011;19508;42.578;23.416;2023-07-30T14:01:20;7.85;;;2.97;;
33150;SDS011;19508;42.578;23.416;2023-07-30T14:03:46;3.92;;;2.83;;
33150;SDS011;19508;42.578;23.416;2023-07-30T14:06:11;7.97;;;3.13;;
33150;SDS011;19508;42.578;23.416;2023-07-30T14:08:37;8.77;;;3.55;;
33150;SDS011;19508;42.578;23.416;2023-07-30T14:11:03;5.15;;;3.20;;
33150;SDS011;19508;42.578;23.416;2023-07-30T14:13:28;7.07;;;2.70;;
33150;SDS011;19508;42.578;23.416;2023-07-30T14:15:54;8.07;;;2.92;;
33150;SDS011;19508;42.578;23.416;2023-07-30T14:18:19;4.50;;;3.05;;
33150;SDS011;19508;42.578;23.416;2023-07-30T14:20:45;5.60;;;3.47;;
33150;SDS011;19508;42.578;23.416;2023-07-30T14:23:10;15.77;;;3.13;;
33150;SDS011;19508;42.578;23.416;2023-07-30T14:25:36;7.97;;;2.95;;
33150;SDS011;19508;42.578;23.416;2023-07-30T14:28:02;4.35;;;2.67;;
33150;SDS011;19508;42.578;23.416;2023-07-30T14:30:27;7.05;;;3.85;;
33150;SDS011;19508;42.578;23.416;2023-07-30T14:32:53;5.85;;;3.42;;
33150;SDS011;19508;42.578;23.416;2023-07-30T14:35:18;6.50;;;3.63;;
33150;SDS011;19508;42.578;23.416;2023-07-30T14:37:44;5.18;;;3.25;;